sensor_id;sensor_type;location;lat;lon;timestamp;pressure;altitude;pressure_sealevel;temperature;humidity
19759;BME280;10038;42.662;23.278;2023-04-24T00:01:59;161604.84;;;11.07;81.52
19759;BME280;10038;42.662;23.278;2023-04-24T00:04:26;161556.81;;;10.89;82.70
19759;BME280;10038;42.662;23.278;2023-04-24T00:06:54;161567.50;;;10.93;80.69
19759;BME280;10038;42.662;23.278;2023-04-24T00:09:22;161570.13;;;10.94;81.04
19759;BME280;10038;42.662;23.278;2023-04-24T00:11:49;161579.47;;;10.97;81.68
19759;BME280;10038;42.662;23.278;2023-04-24T00:14:16;161572.81;;;10.95;81.35
19759;BME280;10038;42.662;23.278;2023-04-24T00:16:43;161580.81;;;10.98;80.28
19759;BME280;10038;42.662;23.278;2023-04-24T00:19:10;161580.81;;;10.98;78.97
19759;BME280;10038;42.662;23.278;2023-04-24T00:21:38;161628.81;;;11.16;77.83
19759;BME280;10038;42.662;23.278;2023-04-24T00:24:06;161572.81;;;10.95;79.15
19759;BME280;10038;42.662;23.278;2023-04-24T00:26:34;161522.16;;;10.76;80.56
19759;BME280;10038;42.662;23.278;2023-04-24T00:29:01;161538.16;;;10.82;80.77
19759;BME280;10038;42.662;23.278;2023-04-24T00:31:28;161536.81;;;10.81;81.17
19759;BME280;10038;42.662;23.278;2023-04-24T00:33:54;161567.50;;;10.93;81.10
19759;BME280;10038;42.662;23.278;2023-04-24T00:36:21;161564.81;;;10.92;81.40
19759;BME280;10038;42.662;23.278;2023-04-24T00:38:48;161620.78;;;11.13;80.91
19759;BME280;10038;42.662;23.278;2023-04-24T00:41:16;161612.78;;;11.10;80.89
19759;BME280;10038;42.662;23.278;2023-04-24T00:43:43;161483.47;;;10.61;81.88
19759;BME280;10038;42.662;23.278;2023-04-24T00:46:11;161522.16;;;10.76;82.41
19759;BME280;10038;42.662;23.278;2023-04-24T00:48:39;161535.47;;;10.81;82.69
19759;BME280;10038;42.662;23.278;2023-04-24T00:51:06;161452.78;;;10.49;82.80
19759;BME280;10038;42.662;23.278;2023-04-24T00:53:33;161479.50;;;10.59;83.42
19759;BME280;10038;42.662;23.278;2023-04-24T00:56:00;161516.81;;;10.74;82.90
19759;BME280;10038;42.662;23.278;2023-04-24T00:58:29;161559.50;;;10.90;82.34
19759;BME280;10038;42.662;23.278;2023-04-24T01:00:57;161578.13;;;10.97;82.28
19759;BME280;10038;42.662;23.278;2023-04-24T01:03:29;161628.81;;;11.16;82.22
19759;BME280;10038;42.662;23.278;2023-04-24T01:05:57;161650.13;;;11.24;84.68
19759;BME280;10038;42.662;23.278;2023-04-24T01:08:24;161660.84;;;11.28;84.53
19759;BME280;10038;42.662;23.278;2023-04-24T01:10:53;161426.16;;;10.39;86.52
19759;BME280;10038;42.662;23.278;2023-04-24T01:13:20;161603.50;;;11.06;86.46
19759;BME280;10038;42.662;23.278;2023-04-24T01:15:48;161656.81;;;11.26;86.91
19759;BME280;10038;42.662;23.278;2023-04-24T01:18:15;161646.16;;;11.22;89.09
19759;BME280;10038;42.662;23.278;2023-04-24T01:20:43;161626.16;;;11.15;91.57
19759;BME280;10038;42.662;23.278;2023-04-24T01:23:13;161539.50;;;10.82;90.92
19759;BME280;10038;42.662;23.278;2023-04-24T01:25:40;161506.13;;;10.70;91.37
19759;BME280;10038;42.662;23.278;2023-04-24T01:28:08;161567.50;;;10.93;91.31
19759;BME280;10038;42.662;23.278;2023-04-24T01:30:35;161571.47;;;10.94;92.74
19759;BME280;10038;42.662;23.278;2023-04-24T01:33:02;161502.16;;;10.68;92.65
19759;BME280;10038;42.662;23.278;2023-04-24T01:35:29;161507.47;;;10.70;93.77
19759;BME280;10038;42.662;23.278;2023-04-24T01:37:56;161400.84;;;10.30;95.73
19759;BME280;10038;42.662;23.278;2023-04-24T01:40:24;161418.16;;;10.36;97.03
19759;BME280;10038;42.662;23.278;2023-04-24T01:42:52;161383.50;;;10.23;96.81
19759;BME280;10038;42.662;23.278;2023-04-24T01:45:19;161358.16;;;10.14;97.72
19759;BME280;10038;42.662;23.278;2023-04-24T01:47:45;161351.44;;;10.11;97.98
19759;BME280;10038;42.662;23.278;2023-04-24T01:50:14;161348.81;;;10.10;98.41
19759;BME280;10038;42.662;23.278;2023-04-24T01:52:41;161312.84;;;9.96;99.35
19759;BME280;10038;42.662;23.278;2023-04-24T01:55:09;161348.81;;;10.10;99.81
19759;BME280;10038;42.662;23.278;2023-04-24T01:57:37;161338.13;;;10.06;100.00
19759;BME280;10038;42.662;23.278;2023-04-24T02:00:06;161316.81;;;9.98;100.00
19759;BME280;10038;42.662;23.278;2023-04-24T02:02:33;161254.22;;;9.74;100.00
19759;BME280;10038;42.662;23.278;2023-04-24T02:05:00;161207.56;;;9.57;100.00
19759;BME280;10038;42.662;23.278;2023-04-24T02:07:28;161244.88;;;9.71;100.00
19759;BME280;10038;42.662;23.278;2023-04-24T02:09:55;161231.56;;;9.66;100.00
19759;BME280;10038;42.662;23.278;2023-04-24T02:12:21;161232.91;;;9.66;100.00
19759;BME280;10038;42.662;23.278;2023-04-24T02:14:50;161218.25;;;9.61;100.00
19759;BME280;10038;42.662;23.278;2023-04-24T02:17:17;161210.25;;;9.58;100.00
19759;BME280;10038;42.662;23.278;2023-04-24T02:19:44;161236.88;;;9.68;100.00
19759;BME280;10038;42.662;23.278;2023-04-24T02:22:11;161210.25;;;9.58;100.00
19759;BME280;10038;42.662;23.278;2023-04-24T02:24:38;161242.19;;;9.70;100.00
19759;BME280;10038;42.662;23.278;2023-04-24T02:27:05;161220.88;;;9.62;100.00
19759;BME280;10038;42.662;23.278;2023-04-24T02:29:32;161171.59;;;9.43;100.00
19759;BME280;10038;42.662;23.278;2023-04-24T02:32:00;161167.63;;;9.41;100.00
19759;BME280;10038;42.662;23.278;2023-04-24T02:34:27;161195.59;;;9.52;100.00
19759;BME280;10038;42.662;23.278;2023-04-24T02:36:54;161220.88;;;9.62;100.00
19759;BME280;10038;42.662;23.278;2023-04-24T02:39:21;161220.88;;;9.62;100.00
19759;BME280;10038;42.662;23.278;2023-04-24T02:41:47;161191.56;;;9.50;100.00
19759;BME280;10038;42.662;23.278;2023-04-24T02:44:14;161180.94;;;9.46;100.00
19759;BME280;10038;42.662;23.278;2023-04-24T02:46:42;161202.25;;;9.55;100.00
19759;BME280;10038;42.662;23.278;2023-04-24T02:49:10;161215.56;;;9.60;100.00
19759;BME280;10038;42.662;23.278;2023-04-24T02:51:37;161188.94;;;9.49;100.00
19759;BME280;10038;42.662;23.278;2023-04-24T02:54:06;161135.66;;;9.29;100.00
19759;BME280;10038;42.662;23.278;2023-04-24T02:56:33;161166.31;;;9.41;100.00
19759;BME280;10038;42.662;23.278;2023-04-24T02:59:00;161170.28;;;9.42;100.00
19759;BME280;10038;42.662;23.278;2023-04-24T03:01:27;161194.25;;;9.52;100.00
19759;BME280;10038;42.662;23.278;2023-04-24T03:03:54;161208.91;;;9.57;100.00
19759;BME280;10038;42.662;23.278;2023-04-24T03:06:22;161210.25;;;9.58;100.00
19759;BME280;10038;42.662;23.278;2023-04-24T03:08:49;161154.31;;;9.36;100.00
19759;BME280;10038;42.662;23.278;2023-04-24T03:11:16;161129.00;;;9.27;100.00
19759;BME280;10038;42.662;23.278;2023-04-24T03:13:42;161135.66;;;9.29;100.00
19759;BME280;10038;42.662;23.278;2023-04-24T03:16:09;161109.03;;;9.19;100.00
19759;BME280;10038;42.662;23.278;2023-04-24T03:18:36;161082.38;;;9.09;100.00
19759;BME280;10038;42.662;23.278;2023-04-24T03:21:03;161062.41;;;9.02;100.00
19759;BME280;10038;42.662;23.278;2023-04-24T03:23:31;161082.38;;;9.09;100.00
19759;BME280;10038;42.662;23.278;2023-04-24T03:25:58;161074.44;;;9.06;100.00
19759;BME280;10038;42.662;23.278;2023-04-24T03:28:25;161087.72;;;9.11;100.00
19759;BME280;10038;42.662;23.278;2023-04-24T03:30:52;161066.44;;;9.03;100.00
19759;BME280;10038;42.662;23.278;2023-04-24T03:33:19;161058.44;;;9.00;100.00
19759;BME280;10038;42.662;23.278;2023-04-24T03:35:46;161087.72;;;9.11;100.00
19759;BME280;10038;42.662;23.278;2023-04-24T03:38:12;161117.03;;;9.22;98.96
19759;BME280;10038;42.662;23.278;2023-04-24T03:40:41;161166.31;;;9.41;98.43
19759;BME280;10038;42.662;23.278;2023-04-24T03:43:07;161196.94;;;9.53;98.32
19759;BME280;10038;42.662;23.278;2023-04-24T03:45:34;161231.56;;;9.66;97.63
19759;BME280;10038;42.662;23.278;2023-04-24T03:48:01;161234.25;;;9.67;97.41
19759;BME280;10038;42.662;23.278;2023-04-24T03:50:28;161228.88;;;9.65;97.10
19759;BME280;10038;42.662;23.278;2023-04-24T03:52:55;161243.53;;;9.70;96.37
19759;BME280;10038;42.662;23.278;2023-04-24T03:55:22;161218.25;;;9.61;96.44
19759;BME280;10038;42.662;23.278;2023-04-24T03:57:50;161272.84;;;9.81;96.18
19759;BME280;10038;42.662;23.278;2023-04-24T04:00:17;161304.84;;;9.93;95.85
19759;BME280;10038;42.662;23.278;2023-04-24T04:02:44;161319.50;;;9.99;95.49
19759;BME280;10038;42.662;23.278;2023-04-24T04:05:11;161318.16;;;9.98;95.32
19759;BME280;10038;42.662;23.278;2023-04-24T04:07:38;161363.53;;;10.16;94.42
19759;BME280;10038;42.662;23.278;2023-04-24T04:10:06;161378.19;;;10.21;93.99
19759;BME280;10038;42.662;23.278;2023-04-24T04:12:33;161391.50;;;10.26;92.92
19759;BME280;10038;42.662;23.278;2023-04-24T04:15:01;161424.81;;;10.39;92.03
19759;BME280;10038;42.662;23.278;2023-04-24T04:17:29;161447.47;;;10.47;90.83
19759;BME280;10038;42.662;23.278;2023-04-24T04:19:55;161450.16;;;10.48;91.05
19759;BME280;10038;42.662;23.278;2023-04-24T04:22:22;161486.16;;;10.62;91.03
19759;BME280;10038;42.662;23.278;2023-04-24T04:24:49;161474.16;;;10.57;92.60
19759;BME280;10038;42.662;23.278;2023-04-24T04:27:16;161503.44;;;10.68;92.51
19759;BME280;10038;42.662;23.278;2023-04-24T04:29:43;161484.81;;;10.61;90.77
19759;BME280;10038;42.662;23.278;2023-04-24T04:32:12;161532.78;;;10.80;89.59
19759;BME280;10038;42.662;23.278;2023-04-24T04:34:39;161579.47;;;10.97;89.15
19759;BME280;10038;42.662;23.278;2023-04-24T04:37:06;161607.47;;;11.08;87.93
19759;BME280;10038;42.662;23.278;2023-04-24T04:39:32;161498.13;;;10.66;88.14
19759;BME280;10038;42.662;23.278;2023-04-24T04:41:59;161623.47;;;11.14;88.45
19759;BME280;10038;42.662;23.278;2023-04-24T04:44:26;161604.84;;;11.07;87.19
19759;BME280;10038;42.662;23.278;2023-04-24T04:46:54;161562.13;;;10.91;85.87
19759;BME280;10038;42.662;23.278;2023-04-24T04:49:23;161514.13;;;10.73;86.62
19759;BME280;10038;42.662;23.278;2023-04-24T04:51:50;161471.50;;;10.56;86.88
19759;BME280;10038;42.662;23.278;2023-04-24T04:54:17;161431.47;;;10.41;87.13
19759;BME280;10038;42.662;23.278;2023-04-24T04:56:49;161454.13;;;10.50;86.79
19759;BME280;10038;42.662;23.278;2023-04-24T04:59:16;161480.84;;;10.60;86.00
19759;BME280;10038;42.662;23.278;2023-04-24T05:01:43;161520.81;;;10.75;85.61
19759;BME280;10038;42.662;23.278;2023-04-24T05:04:10;161520.81;;;10.75;85.16
19759;BME280;10038;42.662;23.278;2023-04-24T05:06:38;161559.50;;;10.90;85.27
19759;BME280;10038;42.662;23.278;2023-04-24T05:09:05;161599.47;;;11.05;84.52
19759;BME280;10038;42.662;23.278;2023-04-24T05:11:32;161554.13;;;10.88;83.37
19759;BME280;10038;42.662;23.278;2023-04-24T05:13:59;161624.81;;;11.14;83.06
19759;BME280;10038;42.662;23.278;2023-04-24T05:16:26;161652.81;;;11.25;82.57
19759;BME280;10038;42.662;23.278;2023-04-24T05:18:53;161652.81;;;11.25;81.73
19759;BME280;10038;42.662;23.278;2023-04-24T05:21:20;161699.47;;;11.43;81.42
19759;BME280;10038;42.662;23.278;2023-04-24T05:23:48;161743.50;;;11.59;81.23
19759;BME280;10038;42.662;23.278;2023-04-24T05:26:15;161755.53;;;11.64;80.75
19759;BME280;10038;42.662;23.278;2023-04-24T05:28:43;161734.22;;;11.56;78.77
19759;BME280;10038;42.662;23.278;2023-04-24T05:31:10;161680.84;;;11.36;79.39
19759;BME280;10038;42.662;23.278;2023-04-24T05:33:37;161670.19;;;11.32;77.47
19759;BME280;10038;42.662;23.278;2023-04-24T05:36:06;161695.50;;;11.41;76.70
19759;BME280;10038;42.662;23.278;2023-04-24T05:38:33;161703.50;;;11.44;76.86
19759;BME280;10038;42.662;23.278;2023-04-24T05:41:01;161722.16;;;11.51;75.86
19759;BME280;10038;42.662;23.278;2023-04-24T05:43:28;161731.53;;;11.55;75.24
19759;BME280;10038;42.662;23.278;2023-04-24T05:45:55;161754.22;;;11.63;75.27
19759;BME280;10038;42.662;23.278;2023-04-24T05:48:21;161858.34;;;12.03;74.58
19759;BME280;10038;42.662;23.278;2023-04-24T05:50:48;162007.81;;;12.59;72.51
19759;BME280;10038;42.662;23.278;2023-04-24T05:53:16;162210.84;;;13.36;69.86
19759;BME280;10038;42.662;23.278;2023-04-24T05:55:43;162128.03;;;13.05;68.26
19759;BME280;10038;42.662;23.278;2023-04-24T05:58:12;162365.88;;;13.94;66.59
19759;BME280;10038;42.662;23.278;2023-04-24T06:00:39;162462.09;;;14.31;64.56
19759;BME280;10038;42.662;23.278;2023-04-24T06:03:08;162586.50;;;14.77;63.26
19759;BME280;10038;42.662;23.278;2023-04-24T06:05:34;162868.78;;;15.84;59.88
19759;BME280;10038;42.662;23.278;2023-04-24T06:08:01;162957.13;;;16.17;58.77
19759;BME280;10038;42.662;23.278;2023-04-24T06:10:28;162973.19;;;16.23;57.64
19759;BME280;10038;42.662;23.278;2023-04-24T06:12:55;163026.72;;;16.43;57.45
19759;BME280;10038;42.662;23.278;2023-04-24T06:15:28;163308.03;;;17.49;55.33
19759;BME280;10038;42.662;23.278;2023-04-24T06:17:55;163541.28;;;18.37;52.91
19759;BME280;10038;42.662;23.278;2023-04-24T06:20:23;163522.47;;;18.30;50.79
19759;BME280;10038;42.662;23.278;2023-04-24T06:22:50;163442.06;;;18.00;51.71
19759;BME280;10038;42.662;23.278;2023-04-24T06:25:16;163056.22;;;16.55;55.13
19759;BME280;10038;42.662;23.278;2023-04-24T06:27:44;163224.97;;;17.18;54.81
19759;BME280;10038;42.662;23.278;2023-04-24T06:30:11;163385.78;;;17.79;52.66
19759;BME280;10038;42.662;23.278;2023-04-24T06:32:40;163581.50;;;18.52;50.85
19759;BME280;10038;42.662;23.278;2023-04-24T06:35:07;163326.81;;;17.56;53.04
19759;BME280;10038;42.662;23.278;2023-04-24T06:37:35;163354.94;;;17.67;53.44
19759;BME280;10038;42.662;23.278;2023-04-24T06:40:02;163385.78;;;17.79;52.70
19759;BME280;10038;42.662;23.278;2023-04-24T06:42:29;163400.53;;;17.84;51.04
19759;BME280;10038;42.662;23.278;2023-04-24T06:44:56;163460.84;;;18.07;51.81
19759;BME280;10038;42.662;23.278;2023-04-24T06:47:22;163624.41;;;18.68;50.54
19759;BME280;10038;42.662;23.278;2023-04-24T06:49:51;163798.75;;;19.34;49.78
19759;BME280;10038;42.662;23.278;2023-04-24T06:52:18;164060.56;;;20.32;44.92
19759;BME280;10038;42.662;23.278;2023-04-24T06:54:45;164298.22;;;21.22;42.86
19759;BME280;10038;42.662;23.278;2023-04-24T06:57:11;164086.03;;;20.42;45.52
19759;BME280;10038;42.662;23.278;2023-04-24T06:59:38;164389.59;;;21.56;43.63
19759;BME280;10038;42.662;23.278;2023-04-24T07:02:05;164435.22;;;21.73;42.05
19759;BME280;10038;42.662;23.278;2023-04-24T07:04:32;164472.91;;;21.87;41.37
19759;BME280;10038;42.662;23.278;2023-04-24T07:07:00;164560.25;;;22.20;40.69
19759;BME280;10038;42.662;23.278;2023-04-24T07:09:27;164740.47;;;22.87;39.23
19759;BME280;10038;42.662;23.278;2023-04-24T07:11:54;164948.94;;;23.66;37.33
19759;BME280;10038;42.662;23.278;2023-04-24T07:14:22;165048.50;;;24.03;36.03
19759;BME280;10038;42.662;23.278;2023-04-24T07:16:49;165145.41;;;24.39;35.71
19759;BME280;10038;42.662;23.278;2023-04-24T07:19:16;165076.81;;;24.14;36.04
19759;BME280;10038;42.662;23.278;2023-04-24T07:21:43;165197.91;;;24.59;34.75
19759;BME280;10038;42.662;23.278;2023-04-24T07:24:11;165327.22;;;25.07;33.52
19759;BME280;10038;42.662;23.278;2023-04-24T07:26:38;165554.84;;;25.93;32.31
19759;BME280;10038;42.662;23.278;2023-04-24T07:29:06;165612.81;;;26.14;31.84
19759;BME280;10038;42.662;23.278;2023-04-24T07:31:32;165546.78;;;25.90;32.17
19759;BME280;10038;42.662;23.278;2023-04-24T07:33:59;165425.47;;;25.44;32.67
19759;BME280;10038;42.662;23.278;2023-04-24T07:36:26;165134.69;;;24.35;34.30
19759;BME280;10038;42.662;23.278;2023-04-24T07:38:54;165488.84;;;25.68;32.88
19759;BME280;10038;42.662;23.278;2023-04-24T07:41:23;165740.78;;;26.62;32.04
19759;BME280;10038;42.662;23.278;2023-04-24T07:43:50;165690.94;;;26.44;31.86
19759;BME280;10038;42.662;23.278;2023-04-24T07:46:17;165672.09;;;26.36;31.87
19759;BME280;10038;42.662;23.278;2023-04-24T07:48:44;165542.69;;;25.88;32.50
19759;BME280;10038;42.662;23.278;2023-04-24T07:51:13;165472.69;;;25.62;32.72
19759;BME280;10038;42.662;23.278;2023-04-24T07:53:40;165740.78;;;26.62;31.48
19759;BME280;10038;42.662;23.278;2023-04-24T07:56:07;165886.41;;;27.17;31.18
19759;BME280;10038;42.662;23.278;2023-04-24T07:58:35;165614.19;;;26.15;32.03
19759;BME280;10038;42.662;23.278;2023-04-24T08:01:02;165898.56;;;27.21;30.81
19759;BME280;10038;42.662;23.278;2023-04-24T08:03:29;166095.47;;;27.95;29.86
19759;BME280;10038;42.662;23.278;2023-04-24T08:05:55;166299.22;;;28.71;28.54
19759;BME280;10038;42.662;23.278;2023-04-24T08:08:23;165975.44;;;27.50;29.40
19759;BME280;10038;42.662;23.278;2023-04-24T08:10:50;166450.44;;;29.28;28.29
19759;BME280;10038;42.662;23.278;2023-04-24T08:13:16;166191.28;;;28.31;28.48
19759;BME280;10038;42.662;23.278;2023-04-24T08:15:45;165959.28;;;27.44;29.23
19759;BME280;10038;42.662;23.278;2023-04-24T08:18:11;166068.50;;;27.85;29.08
19759;BME280;10038;42.662;23.278;2023-04-24T08:20:39;166312.72;;;28.76;28.75
19759;BME280;10038;42.662;23.278;2023-04-24T08:23:06;166040.19;;;27.74;29.47
19759;BME280;10038;42.662;23.278;2023-04-24T08:25:33;166280.38;;;28.64;29.54
19759;BME280;10038;42.662;23.278;2023-04-24T08:28:02;166607.03;;;29.86;27.54
19759;BME280;10038;42.662;23.278;2023-04-24T08:30:29;166909.66;;;30.99;25.34
19759;BME280;10038;42.662;23.278;2023-04-24T08:32:57;166947.50;;;31.13;26.49
19759;BME280;10038;42.662;23.278;2023-04-24T08:35:24;166986.69;;;31.28;25.91
19759;BME280;10038;42.662;23.278;2023-04-24T08:37:52;166563.78;;;29.70;27.08
19759;BME280;10038;42.662;23.278;2023-04-24T08:40:23;166812.38;;;30.63;26.51
19759;BME280;10038;42.662;23.278;2023-04-24T08:42:54;166436.97;;;29.22;27.21
19759;BME280;10038;42.662;23.278;2023-04-24T08:45:23;166601.66;;;29.84;26.86
19759;BME280;10038;42.662;23.278;2023-04-24T08:47:50;166365.34;;;28.96;27.82
19759;BME280;10038;42.662;23.278;2023-04-24T08:50:20;166040.19;;;27.74;29.82
19759;BME280;10038;42.662;23.278;2023-04-24T08:52:48;166142.75;;;28.13;29.46
19759;BME280;10038;42.662;23.278;2023-04-24T08:55:16;166067.16;;;27.84;29.97
19759;BME280;10038;42.662;23.278;2023-04-24T08:57:44;166145.41;;;28.14;29.57
19759;BME280;10038;42.662;23.278;2023-04-24T09:00:14;166349.19;;;28.90;29.03
19759;BME280;10038;42.662;23.278;2023-04-24T09:02:42;166399.13;;;29.08;28.31
19759;BME280;10038;42.662;23.278;2023-04-24T09:05:10;166366.69;;;28.96;28.22
19759;BME280;10038;42.662;23.278;2023-04-24T09:07:39;166458.53;;;29.31;27.80
19759;BME280;10038;42.662;23.278;2023-04-24T09:10:08;166478.78;;;29.38;27.76
19759;BME280;10038;42.662;23.278;2023-04-24T09:12:35;166218.25;;;28.41;29.35
19759;BME280;10038;42.662;23.278;2023-04-24T09:15:02;166014.56;;;27.65;30.16
19759;BME280;10038;42.662;23.278;2023-04-24T09:17:30;165943.06;;;27.38;29.92
19759;BME280;10038;42.662;23.278;2023-04-24T09:19:57;166150.78;;;28.16;29.57
19759;BME280;10038;42.662;23.278;2023-04-24T09:22:24;165897.22;;;27.21;29.72
19759;BME280;10038;42.662;23.278;2023-04-24T09:25:02;165743.50;;;26.63;30.86
19759;BME280;10038;42.662;23.278;2023-04-24T09:27:29;166300.59;;;28.72;28.71
19759;BME280;10038;42.662;23.278;2023-04-24T09:29:57;165980.88;;;27.52;30.38
19759;BME280;10038;42.662;23.278;2023-04-24T09:32:24;165843.28;;;27.01;30.79
19759;BME280;10038;42.662;23.278;2023-04-24T09:35:06;166003.78;;;27.61;31.23
19759;BME280;10038;42.662;23.278;2023-04-24T09:37:35;166002.44;;;27.60;29.92
19759;BME280;10038;42.662;23.278;2023-04-24T09:40:15;165937.69;;;27.36;30.84
19759;BME280;10038;42.662;23.278;2023-04-24T09:42:46;165988.97;;;27.55;29.67
19759;BME280;10038;42.662;23.278;2023-04-24T09:45:18;165742.16;;;26.63;32.28
19759;BME280;10038;42.662;23.278;2023-04-24T09:47:45;165754.25;;;26.67;31.57
19759;BME280;10038;42.662;23.278;2023-04-24T09:50:13;165940.34;;;27.37;30.26
19759;BME280;10038;42.662;23.278;2023-04-24T09:52:42;165792.06;;;26.81;31.62
19759;BME280;10038;42.662;23.278;2023-04-24T09:55:17;166084.66;;;27.91;29.95
19759;BME280;10038;42.662;23.278;2023-04-24T09:57:51;166258.72;;;28.56;28.70
19759;BME280;10038;42.662;23.278;2023-04-24T10:00:22;166312.72;;;28.76;28.89
19759;BME280;10038;42.662;23.278;2023-04-24T10:02:51;166090.06;;;27.93;30.31
19759;BME280;10038;42.662;23.278;2023-04-24T10:05:23;165982.16;;;27.52;30.98
19759;BME280;10038;42.662;23.278;2023-04-24T10:07:50;165997.00;;;27.58;30.43
19759;BME280;10038;42.662;23.278;2023-04-24T10:10:19;166024.00;;;27.68;28.75
19759;BME280;10038;42.662;23.278;2023-04-24T10:12:46;166161.59;;;28.20;28.11
19759;BME280;10038;42.662;23.278;2023-04-24T10:15:13;166473.41;;;29.36;28.30
19759;BME280;10038;42.662;23.278;2023-04-24T10:17:45;166577.28;;;29.75;27.00
19759;BME280;10038;42.662;23.278;2023-04-24T10:20:18;166461.22;;;29.32;27.24
19759;BME280;10038;42.662;23.278;2023-04-24T10:22:47;166499.00;;;29.46;26.62
19759;BME280;10038;42.662;23.278;2023-04-24T10:25:17;166909.66;;;30.99;25.75
19759;BME280;10038;42.662;23.278;2023-04-24T10:27:46;166969.09;;;31.21;23.87
19759;BME280;10038;42.662;23.278;2023-04-24T10:30:14;166988.03;;;31.28;26.17
19759;BME280;10038;42.662;23.278;2023-04-24T10:32:41;166226.34;;;28.44;28.13
19759;BME280;10038;42.662;23.278;2023-04-24T10:35:08;166018.56;;;27.66;28.14
19759;BME280;10038;42.662;23.278;2023-04-24T10:37:39;165645.13;;;26.26;29.06
19759;BME280;10038;42.662;23.278;2023-04-24T10:40:08;165831.16;;;26.96;28.75
19759;BME280;10038;42.662;23.278;2023-04-24T10:42:35;166229.06;;;28.45;26.22
19759;BME280;10038;42.662;23.278;2023-04-24T10:45:16;165806.88;;;26.87;27.89
19759;BME280;10038;42.662;23.278;2023-04-24T10:47:43;165945.72;;;27.39;27.88
19759;BME280;10038;42.662;23.278;2023-04-24T10:50:17;165697.69;;;26.46;28.03
19759;BME280;10038;42.662;23.278;2023-04-24T10:52:44;165079.47;;;24.15;32.92
19759;BME280;10038;42.662;23.278;2023-04-24T10:55:12;164770.03;;;22.99;34.23
19759;BME280;10038;42.662;23.278;2023-04-24T10:57:39;164728.31;;;22.83;33.98
19759;BME280;10038;42.662;23.278;2023-04-24T11:00:28;164897.81;;;23.46;35.07
19759;BME280;10038;42.662;23.278;2023-04-24T11:02:55;164916.69;;;23.54;34.69
19759;BME280;10038;42.662;23.278;2023-04-24T11:05:22;164800.94;;;23.10;34.76
19759;BME280;10038;42.662;23.278;2023-04-24T11:08:14;164556.25;;;22.18;35.97
19759;BME280;10038;42.662;23.278;2023-04-24T11:10:44;164489.06;;;21.93;36.01
19759;BME280;10038;42.662;23.278;2023-04-24T11:13:14;164331.84;;;21.34;36.21
19759;BME280;10038;42.662;23.278;2023-04-24T11:15:43;164225.66;;;20.94;38.19
19759;BME280;10038;42.662;23.278;2023-04-24T11:18:13;164043.09;;;20.26;42.10
19759;BME280;10038;42.662;23.278;2023-04-24T11:20:43;163750.47;;;19.16;51.37
19759;BME280;10038;42.662;23.278;2023-04-24T11:23:15;163670.03;;;18.85;60.49
19759;BME280;10038;42.662;23.278;2023-04-24T11:26:09;164051.16;;;20.29;58.36
19759;BME280;10038;42.662;23.278;2023-04-24T11:28:36;164435.22;;;21.73;46.42
19759;BME280;10038;42.662;23.278;2023-04-24T11:34:12;163927.63;;;19.82;55.27
19759;BME280;10038;42.662;23.278;2023-04-24T11:36:43;163675.38;;;18.88;59.25
19759;BME280;10038;42.662;23.278;2023-04-24T11:39:11;163522.47;;;18.30;63.63
19759;BME280;10038;42.662;23.278;2023-04-24T11:41:38;163450.09;;;18.03;67.47
19759;BME280;10038;42.662;23.278;2023-04-24T11:44:08;163580.16;;;18.52;70.50
19759;BME280;10038;42.662;23.278;2023-04-24T11:46:35;163801.47;;;19.35;70.38
19759;BME280;10038;42.662;23.278;2023-04-24T11:49:03;163953.09;;;19.92;71.25
19759;BME280;10038;42.662;23.278;2023-04-24T11:51:32;164243.16;;;21.01;65.06
19759;BME280;10038;42.662;23.278;2023-04-24T11:54:00;164346.63;;;21.40;63.84
19759;BME280;10038;42.662;23.278;2023-04-24T11:56:27;164241.78;;;21.00;54.50
19759;BME280;10038;42.662;23.278;2023-04-24T11:58:54;164417.81;;;21.66;52.06
19759;BME280;10038;42.662;23.278;2023-04-24T12:01:21;164648.97;;;22.53;49.75
19759;BME280;10038;42.662;23.278;2023-04-24T12:03:49;164565.66;;;22.22;47.42
19759;BME280;10038;42.662;23.278;2023-04-24T12:06:16;164704.16;;;22.74;47.71
19759;BME280;10038;42.662;23.278;2023-04-24T12:08:47;165002.75;;;23.86;43.69
19759;BME280;10038;42.662;23.278;2023-04-24T12:11:16;165430.91;;;25.46;41.66
19759;BME280;10038;42.662;23.278;2023-04-24T12:13:46;165506.34;;;25.74;37.68
19759;BME280;10038;42.662;23.278;2023-04-24T12:16:14;165344.69;;;25.14;39.58
19759;BME280;10038;42.662;23.278;2023-04-24T12:18:42;165266.63;;;24.85;38.52
19759;BME280;10038;42.662;23.278;2023-04-24T12:21:19;165154.84;;;24.43;38.62
19759;BME280;10038;42.662;23.278;2023-04-24T12:23:48;164889.75;;;23.43;38.48
19759;BME280;10038;42.662;23.278;2023-04-24T12:26:17;164967.78;;;23.73;40.32
19759;BME280;10038;42.662;23.278;2023-04-24T12:28:47;164916.69;;;23.54;39.21
19759;BME280;10038;42.662;23.278;2023-04-24T12:31:15;165070.09;;;24.11;38.35
19759;BME280;10038;42.662;23.278;2023-04-24T12:33:42;164970.47;;;23.74;38.77
19759;BME280;10038;42.662;23.278;2023-04-24T12:36:10;165080.81;;;24.15;37.33
19759;BME280;10038;42.662;23.278;2023-04-24T12:38:38;165123.88;;;24.31;37.04
19759;BME280;10038;42.662;23.278;2023-04-24T12:41:08;165079.47;;;24.15;37.73
19759;BME280;10038;42.662;23.278;2023-04-24T12:43:36;165036.38;;;23.98;38.39
19759;BME280;10038;42.662;23.278;2023-04-24T12:46:03;164814.41;;;23.15;38.48
19759;BME280;10038;42.662;23.278;2023-04-24T12:48:30;164720.25;;;22.80;39.40